createdAt,value
2023-05-14T00:00:21.942Z,11.42
2023-05-14T00:01:21.746Z,11.39
2023-05-14T00:02:21.888Z,11.41
2023-05-14T00:03:21.797Z,11.42
2023-05-14T00:04:21.873Z,11.41
2023-05-14T00:05:21.805Z,11.38
2023-05-14T00:06:21.855Z,11.38
2023-05-14T00:07:21.937Z,11.33
2023-05-14T00:08:21.931Z,11.23
2023-05-14T00:09:21.957Z,11.20
2023-05-14T00:10:22.247Z,11.15
2023-05-14T00:11:22.299Z,11.12
2023-05-14T00:12:22.043Z,11.10
2023-05-14T00:13:22.070Z,11.14
2023-05-14T00:14:22.076Z,11.19
2023-05-14T00:15:22.116Z,11.21
2023-05-14T00:16:22.196Z,11.28
2023-05-14T00:17:22.202Z,11.31
2023-05-14T00:18:22.243Z,11.37
2023-05-14T00:19:22.304Z,11.37
2023-05-14T00:20:22.464Z,11.33
2023-05-14T00:21:22.325Z,11.32
2023-05-14T00:22:22.368Z,11.29
2023-05-14T00:23:22.387Z,11.31
2023-05-14T00:24:22.435Z,11.27
2023-05-14T00:25:22.510Z,11.27
2023-05-14T00:26:22.497Z,11.26
2023-05-14T00:27:22.559Z,11.25
2023-05-14T00:28:22.492Z,11.25
2023-05-14T00:29:22.534Z,11.22
2023-05-14T00:30:22.827Z,11.23
2023-05-14T00:31:22.685Z,11.18
2023-05-14T00:32:22.697Z,11.14
2023-05-14T00:33:22.656Z,11.08
2023-05-14T00:34:22.729Z,11.07
2023-05-14T00:35:22.813Z,11.03
2023-05-14T00:36:22.831Z,11.04
2023-05-14T00:37:22.880Z,11.03
2023-05-14T00:38:22.860Z,10.96
2023-05-14T00:39:22.887Z,10.93
2023-05-14T00:40:23.235Z,10.81
2023-05-14T00:41:22.953Z,10.88
2023-05-14T00:42:22.974Z,10.99
2023-05-14T00:43:23.005Z,10.98
2023-05-14T00:44:23.019Z,10.98
2023-05-14T00:45:23.010Z,11.01
2023-05-14T00:46:23.080Z,10.78
2023-05-14T00:47:23.139Z,10.81
2023-05-14T00:48:23.093Z,10.93
2023-05-14T00:49:23.104Z,11.02
2023-05-14T00:50:23.443Z,11.13
2023-05-14T00:51:23.167Z,11.21
2023-05-14T00:52:23.162Z,11.26
2023-05-14T00:53:23.154Z,11.28
2023-05-14T00:54:23.180Z,11.27
2023-05-14T00:55:23.212Z,11.28
2023-05-14T00:56:23.222Z,11.31
2023-05-14T00:57:23.220Z,11.35
2023-05-14T00:58:23.263Z,11.39
2023-05-14T00:59:23.267Z,11.42
2023-05-14T01:00:23.654Z,11.45
2023-05-14T01:01:23.357Z,11.45
2023-05-14T01:02:23.397Z,11.50
2023-05-14T01:03:23.498Z,11.54
2023-05-14T01:04:23.436Z,11.55
2023-05-14T01:05:23.474Z,11.54
2023-05-14T01:06:23.479Z,11.48
2023-05-14T01:07:23.535Z,11.48
2023-05-14T01:08:23.518Z,11.45
2023-05-14T01:09:23.551Z,11.47
2023-05-14T01:10:23.776Z,11.42
2023-05-14T01:11:23.625Z,11.41
2023-05-14T01:12:23.625Z,11.43
2023-05-14T01:13:23.665Z,11.46
2023-05-14T01:14:23.626Z,11.50
2023-05-14T01:15:23.681Z,11.46
2023-05-14T01:16:23.742Z,11.44
2023-05-14T01:17:23.692Z,11.38
2023-05-14T01:18:23.685Z,11.25
2023-05-14T01:19:23.748Z,11.24
2023-05-14T01:20:23.892Z,11.28
2023-05-14T01:21:23.764Z,11.28
2023-05-14T01:22:23.772Z,11.30
2023-05-14T01:23:23.792Z,11.34
2023-05-14T01:24:23.825Z,11.38
2023-05-14T01:25:23.839Z,11.38
2023-05-14T01:26:23.838Z,11.39
2023-05-14T01:27:23.898Z,11.41
2023-05-14T01:28:23.909Z,11.40
2023-05-14T01:29:23.955Z,11.40
2023-05-14T01:30:24.163Z,11.40
2023-05-14T01:31:24.022Z,11.42
2023-05-14T01:32:24.084Z,11.47
2023-05-14T01:33:24.029Z,11.49
2023-05-14T01:34:24.047Z,11.52
2023-05-14T01:35:24.067Z,11.55
2023-05-14T01:36:24.066Z,11.51
2023-05-14T01:37:24.046Z,11.41
2023-05-14T01:38:24.081Z,11.34
2023-05-14T01:39:24.093Z,11.25
2023-05-14T01:40:24.404Z,11.17
2023-05-14T01:41:24.162Z,11.01
2023-05-14T01:42:24.218Z,11.02
2023-05-14T01:43:24.323Z,11.13
2023-05-14T01:44:24.354Z,11.26
2023-05-14T01:45:24.288Z,11.30
2023-05-14T01:46:24.348Z,11.31
2023-05-14T01:47:24.348Z,11.29
2023-05-14T01:48:24.333Z,11.29
2023-05-14T01:49:24.408Z,11.25
2023-05-14T01:50:24.588Z,11.24
2023-05-14T01:51:24.516Z,11.23
2023-05-14T01:52:24.468Z,11.14
2023-05-14T01:53:24.517Z,11.10
2023-05-14T01:54:24.525Z,11.04
2023-05-14T01:55:24.585Z,10.96
2023-05-14T01:56:24.563Z,10.90
2023-05-14T01:57:24.651Z,10.82
2023-05-14T01:58:24.627Z,10.81
2023-05-14T01:59:24.633Z,10.82
2023-05-14T02:00:24.938Z,10.78
2023-05-14T02:01:24.739Z,10.79
2023-05-14T02:02:24.794Z,10.80
2023-05-14T02:03:24.798Z,10.78
2023-05-14T02:04:24.849Z,10.81
2023-05-14T02:05:24.835Z,10.72
2023-05-14T02:06:24.845Z,10.73
2023-05-14T02:07:24.850Z,10.61
2023-05-14T02:08:24.889Z,10.44
2023-05-14T02:09:24.973Z,10.39
2023-05-14T02:10:25.174Z,10.45
2023-05-14T02:11:25.045Z,10.51
2023-05-14T02:12:25.053Z,10.56
2023-05-14T02:13:25.091Z,10.60
2023-05-14T02:14:25.101Z,10.56
2023-05-14T02:15:25.134Z,10.55
2023-05-14T02:16:25.272Z,10.55
2023-05-14T02:17:25.244Z,10.56
2023-05-14T02:18:25.278Z,10.59
2023-05-14T02:19:25.285Z,10.60
2023-05-14T02:20:25.555Z,10.63
2023-05-14T02:21:25.403Z,10.67
2023-05-14T02:22:25.426Z,10.64
2023-05-14T02:23:31.278Z,10.59
2023-05-14T02:24:26.456Z,10.58
2023-05-14T02:25:25.435Z,10.61
2023-05-14T02:26:25.462Z,10.61
2023-05-14T02:27:25.435Z,10.59
2023-05-14T02:28:25.449Z,10.60
2023-05-14T02:29:25.422Z,10.58
2023-05-14T02:30:25.611Z,10.58
2023-05-14T02:31:25.452Z,10.62
2023-05-14T02:32:25.519Z,10.62
2023-05-14T02:33:25.414Z,10.65
2023-05-14T02:34:25.406Z,10.73
2023-05-14T02:35:25.404Z,10.79
2023-05-14T02:36:25.442Z,10.82
2023-05-14T02:37:25.469Z,10.89
2023-05-14T02:38:25.488Z,10.88
2023-05-14T02:39:25.516Z,10.88
2023-05-14T02:40:25.737Z,10.90
2023-05-14T02:41:25.532Z,10.91
2023-05-14T02:42:25.579Z,10.93
2023-05-14T02:43:25.584Z,10.91
2023-05-14T02:44:25.661Z,10.95
2023-05-14T02:45:25.672Z,10.99
2023-05-14T02:46:25.759Z,11.02
2023-05-14T02:47:25.862Z,10.90
2023-05-14T02:48:25.752Z,10.94
2023-05-14T02:49:25.802Z,11.01
2023-05-14T02:50:25.991Z,11.05
2023-05-14T02:51:25.794Z,11.07
2023-05-14T02:52:25.816Z,11.04
2023-05-14T02:53:25.835Z,11.01
2023-05-14T02:54:25.849Z,11.05
2023-05-14T02:55:25.865Z,11.09
2023-05-14T02:56:25.874Z,11.13
2023-05-14T02:57:25.913Z,11.12
2023-05-14T02:58:28.286Z,11.13
2023-05-14T02:59:25.956Z,11.16
2023-05-14T03:00:26.152Z,11.20
2023-05-14T03:01:25.891Z,11.26
2023-05-14T03:02:26.007Z,11.27
2023-05-14T03:03:25.874Z,11.22
2023-05-14T03:04:25.896Z,11.22
2023-05-14T03:05:25.891Z,11.17
2023-05-14T03:06:25.867Z,11.17
2023-05-14T03:07:25.845Z,11.19
2023-05-14T03:08:25.855Z,11.20
2023-05-14T03:09:25.919Z,11.20
2023-05-14T03:10:26.111Z,11.23
2023-05-14T03:11:25.891Z,11.25
2023-05-14T03:12:25.893Z,11.22
2023-05-14T03:13:25.847Z,11.24
2023-05-14T03:14:25.846Z,11.29
2023-05-14T03:15:25.859Z,11.33
2023-05-14T03:16:25.843Z,11.27
2023-05-14T03:17:25.833Z,11.25
2023-05-14T03:18:25.900Z,11.24
2023-05-14T03:19:25.825Z,11.26
2023-05-14T03:20:25.894Z,11.28
2023-05-14T03:21:25.782Z,11.34
2023-05-14T03:22:25.769Z,11.39
2023-05-14T03:23:25.798Z,11.44
2023-05-14T03:24:25.756Z,11.47
2023-05-14T03:25:25.732Z,11.49
2023-05-14T03:26:25.741Z,11.48
2023-05-14T03:27:25.734Z,11.46
2023-05-14T03:28:25.733Z,11.39
2023-05-14T03:29:25.739Z,11.36
2023-05-14T03:30:26.006Z,11.29
2023-05-14T03:31:25.776Z,11.20
2023-05-14T03:32:25.675Z,11.10
2023-05-14T03:33:25.689Z,11.00
2023-05-14T03:34:25.666Z,10.92
2023-05-14T03:35:25.679Z,10.82
2023-05-14T03:36:25.687Z,10.70
2023-05-14T03:37:25.647Z,10.60
2023-05-14T03:38:25.631Z,10.55
2023-05-14T03:39:25.657Z,10.48
2023-05-14T03:40:25.819Z,10.43
2023-05-14T03:41:25.632Z,10.36
2023-05-14T03:42:25.626Z,10.30
2023-05-14T03:43:25.629Z,10.29
2023-05-14T03:44:25.615Z,10.24
2023-05-14T03:45:25.595Z,10.17
2023-05-14T03:46:25.588Z,10.16
2023-05-14T03:47:25.642Z,10.09
2023-05-14T03:48:25.666Z,10.05
2023-05-14T03:49:25.590Z,10.02
2023-05-14T03:50:25.812Z,9.99
2023-05-14T03:51:25.556Z,9.97
2023-05-14T03:52:25.573Z,9.95
2023-05-14T03:53:25.563Z,9.93
2023-05-14T03:54:25.581Z,9.95
2023-05-14T03:55:25.584Z,9.98
2023-05-14T03:56:25.617Z,9.97
2023-05-14T03:57:25.659Z,9.99
2023-05-14T03:58:25.669Z,10.06
2023-05-14T03:59:25.769Z,10.08
2023-05-14T04:00:26.266Z,10.13
2023-05-14T04:01:25.822Z,10.16
2023-05-14T04:02:25.995Z,10.17
2023-05-14T04:03:26.048Z,10.23
2023-05-14T04:04:25.971Z,10.23
2023-05-14T04:05:25.917Z,10.28
2023-05-14T04:06:25.951Z,10.32
2023-05-14T04:07:26.018Z,10.33
2023-05-14T04:08:26.057Z,10.34
2023-05-14T04:09:26.035Z,10.42
2023-05-14T04:10:26.076Z,10.48
2023-05-14T04:11:26.095Z,10.53
2023-05-14T04:12:26.132Z,10.54
2023-05-14T04:13:26.210Z,10.50
2023-05-14T04:14:26.239Z,10.54
2023-05-14T04:15:26.215Z,10.62
2023-05-14T04:16:26.291Z,10.65
2023-05-14T04:17:26.476Z,10.71
2023-05-14T04:18:26.418Z,10.75
2023-05-14T04:19:26.353Z,10.80
2023-05-14T04:20:26.398Z,10.82
2023-05-14T04:21:26.404Z,10.80
2023-05-14T04:22:26.410Z,10.76
2023-05-14T04:23:26.429Z,10.79
2023-05-14T04:24:26.473Z,10.75
2023-05-14T04:25:26.473Z,10.55
2023-05-14T04:26:26.527Z,10.59
2023-05-14T04:27:26.518Z,10.58
2023-05-14T04:28:26.562Z,10.66
2023-05-14T04:29:26.567Z,10.77
2023-05-14T04:30:26.620Z,10.66
2023-05-14T04:31:26.642Z,10.58
2023-05-14T04:32:26.643Z,10.59
2023-05-14T04:33:26.657Z,10.71
2023-05-14T04:34:26.707Z,10.76
2023-05-14T04:35:26.752Z,10.71
2023-05-14T04:36:26.749Z,10.65
2023-05-14T04:37:26.789Z,10.60
2023-05-14T04:38:26.825Z,10.57
2023-05-14T04:39:26.845Z,10.52
2023-05-14T04:40:27.176Z,10.47
2023-05-14T04:41:26.927Z,10.40
2023-05-14T04:42:26.932Z,10.33
2023-05-14T04:43:27.010Z,10.27
2023-05-14T04:44:27.061Z,10.22
2023-05-14T04:45:27.044Z,10.23
2023-05-14T04:46:27.175Z,10.26
2023-05-14T04:47:27.158Z,10.26
2023-05-14T04:48:27.137Z,10.30
2023-05-14T04:49:27.136Z,10.29
2023-05-14T04:50:27.193Z,10.32
2023-05-14T04:51:27.222Z,10.36
2023-05-14T04:52:27.288Z,10.40
2023-05-14T04:53:27.322Z,10.42
2023-05-14T04:54:27.469Z,10.47
2023-05-14T04:55:27.438Z,10.55
2023-05-14T04:56:27.437Z,10.60
2023-05-14T04:57:27.431Z,10.62
2023-05-14T04:58:27.436Z,10.66
2023-05-14T04:59:27.438Z,10.66
2023-05-14T05:00:27.534Z,10.71
2023-05-14T05:01:27.606Z,10.77
2023-05-14T05:02:27.663Z,10.85
2023-05-14T05:03:27.656Z,10.91
2023-05-14T05:04:27.600Z,10.96
2023-05-14T05:05:27.658Z,11.02
2023-05-14T05:06:27.648Z,11.07
2023-05-14T05:07:27.704Z,11.09
2023-05-14T05:08:27.674Z,10.99
2023-05-14T05:09:27.694Z,10.90
2023-05-14T05:10:27.745Z,10.91
2023-05-14T05:11:27.794Z,10.93
2023-05-14T05:12:27.845Z,10.94
2023-05-14T05:13:27.843Z,10.95
2023-05-14T05:14:27.870Z,10.93
2023-05-14T05:15:27.907Z,10.99
2023-05-14T05:16:27.979Z,11.07
2023-05-14T05:17:27.938Z,11.11
2023-05-14T05:18:27.996Z,11.14
2023-05-14T05:19:39.545Z,11.22
2023-05-14T05:20:28.936Z,11.29
2023-05-14T05:21:28.005Z,11.37
2023-05-14T05:22:27.922Z,11.42
2023-05-14T05:23:27.898Z,11.36
2023-05-14T05:24:27.911Z,11.26
2023-05-14T05:25:27.935Z,11.25
2023-05-14T05:26:27.891Z,11.30
2023-05-14T05:27:27.913Z,11.34
2023-05-14T05:28:27.888Z,11.31
2023-05-14T05:29:27.899Z,11.38
2023-05-14T05:30:27.905Z,11.38
2023-05-14T05:31:27.925Z,11.49
2023-05-14T05:32:27.927Z,11.56
2023-05-14T05:33:27.873Z,11.63
2023-05-14T05:34:27.906Z,11.67
2023-05-14T05:35:27.871Z,11.62
2023-05-14T05:36:27.832Z,11.64
2023-05-14T05:37:27.881Z,11.57
2023-05-14T05:38:27.912Z,11.58
2023-05-14T05:39:27.919Z,11.64
2023-05-14T05:40:27.984Z,11.73
2023-05-14T05:41:28.015Z,11.81
2023-05-14T05:42:28.052Z,11.84
2023-05-14T05:43:28.136Z,11.84
2023-05-14T05:44:28.196Z,11.58
2023-05-14T05:45:28.191Z,11.52
2023-05-14T05:46:28.293Z,11.56
2023-05-14T05:47:28.380Z,11.60
2023-05-14T05:48:28.343Z,11.55
2023-05-14T05:49:28.376Z,11.66
2023-05-14T05:50:28.412Z,11.75
2023-05-14T05:51:28.442Z,11.80
2023-05-14T05:52:28.519Z,11.79
2023-05-14T05:53:28.567Z,11.82
2023-05-14T05:54:28.569Z,11.85
2023-05-14T05:55:28.598Z,11.87
2023-05-14T05:56:28.684Z,11.95
2023-05-14T05:57:28.660Z,12.05
2023-05-14T05:58:28.653Z,12.10
2023-05-14T05:59:28.669Z,12.18
2023-05-14T06:00:28.714Z,12.14
2023-05-14T06:01:28.750Z,12.19
2023-05-14T06:02:28.831Z,12.27
2023-05-14T06:03:28.828Z,12.38
2023-05-14T06:04:28.874Z,12.38
2023-05-14T06:05:28.963Z,12.41
2023-05-14T06:06:28.955Z,12.50
2023-05-14T06:07:28.914Z,12.58
2023-05-14T06:08:28.961Z,12.65
2023-05-14T06:09:29.017Z,12.75
2023-05-14T06:10:29.085Z,12.82
2023-05-14T06:11:29.042Z,12.81
2023-05-14T06:12:29.084Z,12.65
2023-05-14T06:13:29.135Z,12.56
2023-05-14T06:14:29.181Z,12.46
2023-05-14T06:15:29.205Z,12.46
2023-05-14T06:16:29.270Z,12.62
2023-05-14T06:17:29.296Z,12.74
2023-05-14T06:18:29.328Z,12.84
2023-05-14T06:19:29.345Z,12.90
2023-05-14T06:20:29.414Z,12.92
2023-05-14T06:21:29.421Z,12.93
2023-05-14T06:22:29.449Z,12.97
2023-05-14T06:23:29.438Z,13.05
2023-05-14T06:24:29.436Z,13.11
2023-05-14T06:25:29.484Z,13.18
2023-05-14T06:26:29.517Z,13.23
2023-05-14T06:27:29.546Z,13.27
2023-05-14T06:28:29.542Z,13.34
2023-05-14T06:29:29.587Z,13.39
2023-05-14T06:30:29.572Z,13.45
2023-05-14T06:31:29.641Z,13.46
2023-05-14T06:32:29.663Z,13.47
2023-05-14T06:33:29.707Z,13.50
2023-05-14T06:34:29.667Z,13.53
2023-05-14T06:35:29.705Z,13.59
2023-05-14T06:36:29.754Z,13.64
2023-05-14T06:37:29.701Z,13.66
2023-05-14T06:38:29.716Z,13.71
2023-05-14T06:39:29.729Z,13.75
2023-05-14T06:40:29.769Z,13.78
2023-05-14T06:41:29.780Z,13.82
2023-05-14T06:42:29.818Z,13.84
2023-05-14T06:43:29.866Z,13.81
2023-05-14T06:44:29.920Z,13.83
2023-05-14T06:45:31.174Z,13.83
2023-05-14T06:46:29.969Z,13.77
2023-05-14T06:47:29.978Z,13.58
2023-05-14T06:48:30.104Z,13.66
2023-05-14T06:49:30.041Z,13.73
2023-05-14T06:50:30.070Z,13.76
2023-05-14T06:51:30.102Z,13.86
2023-05-14T06:52:30.194Z,13.91
2023-05-14T06:53:30.237Z,14.01
2023-05-14T06:54:30.243Z,14.09
2023-05-14T06:55:30.299Z,14.14
2023-05-14T06:56:30.346Z,14.12
2023-05-14T06:57:30.361Z,14.16
2023-05-14T06:58:30.370Z,14.18
2023-05-14T06:59:30.449Z,14.21
2023-05-14T07:00:30.406Z,14.20
2023-05-14T07:01:30.594Z,14.24
2023-05-14T07:02:30.607Z,14.29
2023-05-14T07:03:30.543Z,14.33
2023-05-14T07:04:30.605Z,14.39
2023-05-14T07:05:30.636Z,14.39
2023-05-14T07:06:30.660Z,14.40
2023-05-14T07:07:30.667Z,14.46
2023-05-14T07:08:30.654Z,14.51
2023-05-14T07:09:30.697Z,14.54
2023-05-14T07:10:30.743Z,14.52
2023-05-14T07:11:30.766Z,14.50
2023-05-14T07:12:30.760Z,14.48
2023-05-14T07:13:30.758Z,14.43
2023-05-14T07:14:30.805Z,14.30
2023-05-14T07:15:30.860Z,14.23
2023-05-14T07:16:30.891Z,14.26
2023-05-14T07:17:30.986Z,14.14
2023-05-14T07:18:30.930Z,14.18
2023-05-14T07:19:30.979Z,14.19
2023-05-14T07:20:31.000Z,14.02
2023-05-14T07:21:31.046Z,14.00
2023-05-14T07:22:31.066Z,14.05
2023-05-14T07:23:31.132Z,13.94
2023-05-14T07:24:31.173Z,13.84
2023-05-14T07:25:31.190Z,13.87
2023-05-14T07:26:31.308Z,14.02
2023-05-14T07:27:31.254Z,14.16
2023-05-14T07:28:31.299Z,14.29
2023-05-14T07:29:31.355Z,14.37
2023-05-14T07:30:31.387Z,14.47
2023-05-14T07:31:31.485Z,14.50
2023-05-14T07:32:31.494Z,14.52
2023-05-14T07:33:31.489Z,14.62
2023-05-14T07:34:31.478Z,14.65
2023-05-14T07:35:31.560Z,14.71
2023-05-14T07:36:31.555Z,14.60
2023-05-14T07:37:31.619Z,14.56
2023-05-14T07:38:31.685Z,14.46
2023-05-14T07:39:31.675Z,14.42
2023-05-14T07:40:31.706Z,14.56
2023-05-14T07:41:31.712Z,14.64
2023-05-14T07:42:36.769Z,14.73
2023-05-14T07:43:32.732Z,14.78
2023-05-14T07:44:31.716Z,14.88
2023-05-14T07:45:31.685Z,14.95
2023-05-14T07:46:31.741Z,15.04
2023-05-14T07:47:31.742Z,15.13
2023-05-14T07:48:31.719Z,15.19
2023-05-14T07:49:31.686Z,15.26
2023-05-14T07:50:31.690Z,15.36
2023-05-14T07:51:31.674Z,15.49
2023-05-14T07:52:31.626Z,15.53
2023-05-14T07:53:31.677Z,15.39
2023-05-14T07:54:31.680Z,15.15
2023-05-14T07:55:31.645Z,15.07
2023-05-14T07:56:31.645Z,15.18
2023-05-14T07:57:31.628Z,15.41
2023-05-14T07:58:31.655Z,15.63
2023-05-14T07:59:31.721Z,15.79
2023-05-14T08:00:31.768Z,15.95
2023-05-14T08:01:31.815Z,16.09
2023-05-14T08:02:31.959Z,16.16
2023-05-14T08:03:31.966Z,16.18
2023-05-14T08:04:31.997Z,16.21
2023-05-14T08:05:32.004Z,16.26
2023-05-14T08:06:31.997Z,16.32
2023-05-14T08:07:32.020Z,16.43
2023-05-14T08:08:32.064Z,16.55
2023-05-14T08:09:32.118Z,16.61
2023-05-14T08:10:32.239Z,16.65
2023-05-14T08:11:32.233Z,16.72
2023-05-14T08:12:32.247Z,16.76
2023-05-14T08:13:32.244Z,16.68
2023-05-14T08:14:32.301Z,16.72
2023-05-14T08:15:32.309Z,16.66
2023-05-14T08:16:32.350Z,16.46
2023-05-14T08:17:32.393Z,16.59
2023-05-14T08:18:32.413Z,16.76
2023-05-14T08:19:32.425Z,16.81
2023-05-14T08:20:32.452Z,16.66
2023-05-14T08:21:32.507Z,16.73
2023-05-14T08:22:32.502Z,16.92
2023-05-14T08:23:32.536Z,16.96
2023-05-14T08:24:32.586Z,17.00
2023-05-14T08:25:32.585Z,17.11
2023-05-14T08:26:32.592Z,17.26
2023-05-14T08:27:32.657Z,17.40
2023-05-14T08:28:32.637Z,17.56
2023-05-14T08:29:32.715Z,17.63
2023-05-14T08:30:32.770Z,17.73
2023-05-14T08:31:32.832Z,17.69
2023-05-14T08:32:32.880Z,17.88
2023-05-14T08:33:32.801Z,17.98
2023-05-14T08:34:32.859Z,18.11
2023-05-14T08:35:32.826Z,18.23
2023-05-14T08:36:32.882Z,18.40
2023-05-14T08:37:32.867Z,18.54
2023-05-14T08:38:32.921Z,18.62
2023-05-14T08:39:32.929Z,18.83
2023-05-14T08:40:32.966Z,18.80
2023-05-14T08:41:33.005Z,18.86
2023-05-14T08:42:33.008Z,18.49
2023-05-14T08:43:33.040Z,18.43
2023-05-14T08:44:33.151Z,18.67
2023-05-14T08:45:33.116Z,18.98
2023-05-14T08:46:33.148Z,19.21
2023-05-14T08:47:33.193Z,18.98
2023-05-14T08:48:33.311Z,19.01
2023-05-14T08:49:33.283Z,19.03
2023-05-14T08:50:33.271Z,19.30
2023-05-14T08:51:33.281Z,19.46
2023-05-14T08:52:33.340Z,19.62
2023-05-14T08:53:33.383Z,19.83
2023-05-14T08:54:33.430Z,20.06
2023-05-14T08:55:33.458Z,20.10
2023-05-14T08:56:33.479Z,20.09
2023-05-14T08:57:33.477Z,19.67
2023-05-14T08:58:33.514Z,19.70
2023-05-14T08:59:33.547Z,19.96
2023-05-14T09:00:33.617Z,20.00
2023-05-14T09:01:33.658Z,20.12
2023-05-14T09:02:33.663Z,19.77
2023-05-14T09:03:33.681Z,19.27
2023-05-14T09:04:33.733Z,18.71
2023-05-14T09:05:33.732Z,19.11
2023-05-14T09:06:33.782Z,19.24
2023-05-14T09:07:33.808Z,19.46
2023-05-14T09:08:33.898Z,19.53
2023-05-14T09:09:33.861Z,19.65
2023-05-14T09:10:33.953Z,19.47
2023-05-14T09:11:33.946Z,19.59
2023-05-14T09:12:33.974Z,19.49
2023-05-14T09:13:34.005Z,19.19
2023-05-14T09:14:34.080Z,19.30
2023-05-14T09:15:34.060Z,19.41
2023-05-14T09:16:34.116Z,19.60
2023-05-14T09:17:34.156Z,19.72
2023-05-14T09:18:34.109Z,19.88
2023-05-14T09:19:34.160Z,19.44
2023-05-14T09:20:34.163Z,19.31
2023-05-14T09:21:34.209Z,19.34
2023-05-14T09:22:34.245Z,19.63
2023-05-14T09:23:34.279Z,19.38
2023-05-14T09:24:34.423Z,19.33
2023-05-14T09:25:34.361Z,19.39
2023-05-14T09:26:34.369Z,19.26
2023-05-14T09:27:34.443Z,19.44
2023-05-14T09:28:34.530Z,19.43
2023-05-14T09:29:34.501Z,18.99
2023-05-14T09:30:34.513Z,18.91
2023-05-14T09:31:34.576Z,19.12
2023-05-14T09:32:34.664Z,19.40
2023-05-14T09:33:34.557Z,19.52
2023-05-14T09:34:34.651Z,19.30
2023-05-14T09:35:34.673Z,19.29
2023-05-14T09:36:34.705Z,19.13
2023-05-14T09:37:34.698Z,19.17
2023-05-14T09:38:34.785Z,19.31
2023-05-14T09:39:34.755Z,19.43
2023-05-14T09:40:34.760Z,19.48
2023-05-14T09:41:34.804Z,19.53
2023-05-14T09:42:34.921Z,19.64
2023-05-14T09:43:34.870Z,19.75
2023-05-14T09:44:34.931Z,19.72
2023-05-14T09:45:34.944Z,19.24
2023-05-14T09:46:34.977Z,19.17
2023-05-14T09:47:35.110Z,19.35
2023-05-14T09:48:35.115Z,19.52
2023-05-14T09:49:35.097Z,19.40
2023-05-14T09:50:35.111Z,19.12
2023-05-14T09:51:35.131Z,18.37
2023-05-14T09:52:35.184Z,18.41
2023-05-14T09:53:35.187Z,18.53
2023-05-14T09:54:35.194Z,18.58
2023-05-14T09:55:35.246Z,18.65
2023-05-14T09:56:35.256Z,18.58
2023-05-14T09:57:35.326Z,18.64
2023-05-14T09:58:35.374Z,18.59
2023-05-14T09:59:35.429Z,18.36
2023-05-14T10:00:35.515Z,18.01
2023-05-14T10:01:35.498Z,17.98
2023-05-14T10:02:35.589Z,18.19
2023-05-14T10:03:35.576Z,18.38
2023-05-14T10:04:35.624Z,18.47
2023-05-14T10:06:11.009Z,18.27
2023-05-14T10:07:11.008Z,18.32
2023-05-14T10:08:11.019Z,18.05
2023-05-14T10:09:10.984Z,18.14
2023-05-14T10:10:10.979Z,18.38
2023-05-14T10:11:10.967Z,18.66
2023-05-14T10:12:10.977Z,18.89
2023-05-14T10:13:10.981Z,19.04
2023-05-14T10:14:10.951Z,19.15
2023-05-14T10:15:10.963Z,19.27
2023-05-14T10:16:10.958Z,19.42
2023-05-14T10:17:10.981Z,19.25
2023-05-14T10:18:11.019Z,19.23
2023-05-14T10:19:10.969Z,19.36
2023-05-14T10:20:10.952Z,19.42
2023-05-14T10:21:10.917Z,19.45
2023-05-14T10:22:10.917Z,19.52
2023-05-14T10:23:10.911Z,19.64
2023-05-14T10:24:10.875Z,19.75
2023-05-14T10:25:10.914Z,19.77
2023-05-14T10:26:10.867Z,19.77
2023-05-14T10:27:10.869Z,19.60
2023-05-14T10:28:10.861Z,19.66
2023-05-14T10:29:10.858Z,19.72
2023-05-14T10:30:10.858Z,19.49
2023-05-14T10:31:10.956Z,19.13
2023-05-14T10:32:11.207Z,19.12
2023-05-14T10:33:10.849Z,19.27
2023-05-14T10:34:10.810Z,19.32
2023-05-14T10:35:10.804Z,19.43
2023-05-14T10:36:10.832Z,19.47
2023-05-14T10:37:10.793Z,19.55
2023-05-14T10:38:10.789Z,19.08
2023-05-14T10:39:10.814Z,18.99
2023-05-14T10:40:10.812Z,19.06
2023-05-14T10:41:10.732Z,19.09
2023-05-14T10:42:10.753Z,19.18
2023-05-14T10:43:10.772Z,19.31
2023-05-14T10:44:10.745Z,19.22
2023-05-14T10:45:10.735Z,19.34
2023-05-14T10:46:10.762Z,19.42
2023-05-14T10:47:10.760Z,19.42
2023-05-14T10:48:10.864Z,19.33
2023-05-14T10:49:10.814Z,19.34
2023-05-14T10:50:10.862Z,19.31
2023-05-14T10:51:10.927Z,19.27
2023-05-14T10:52:10.929Z,19.06
2023-05-14T10:53:11.003Z,19.01
2023-05-14T10:54:11.036Z,18.92
2023-05-14T10:55:11.037Z,18.77
2023-05-14T10:56:11.111Z,18.62
2023-05-14T10:57:11.119Z,18.38
2023-05-14T10:58:11.124Z,18.53
2023-05-14T10:59:11.162Z,18.70
2023-05-14T11:00:11.187Z,18.76
2023-05-14T11:01:11.256Z,18.86
2023-05-14T11:02:11.359Z,18.81
2023-05-14T11:03:11.388Z,18.67
2023-05-14T11:04:11.473Z,18.73
2023-05-14T11:05:11.417Z,18.65
2023-05-14T11:06:11.418Z,18.61
2023-05-14T11:07:11.467Z,18.71
2023-05-14T11:08:11.456Z,18.71
2023-05-14T11:09:11.498Z,18.76
2023-05-14T11:10:11.521Z,18.69
2023-05-14T11:11:11.563Z,18.65
2023-05-14T11:12:11.562Z,18.67
2023-05-14T11:13:11.603Z,18.72
2023-05-14T11:14:11.648Z,18.74
2023-05-14T11:15:11.649Z,18.67
2023-05-14T11:16:22.443Z,18.65
2023-05-14T11:17:12.758Z,18.29
2023-05-14T11:18:11.708Z,18.43
2023-05-14T11:19:11.773Z,18.57
2023-05-14T11:20:11.710Z,18.47
2023-05-14T11:21:11.638Z,18.42
2023-05-14T11:22:11.614Z,18.33
2023-05-14T11:23:11.639Z,18.45
2023-05-14T11:24:11.635Z,18.30
2023-05-14T11:25:11.622Z,18.38
2023-05-14T11:26:11.644Z,18.54
2023-05-14T11:27:11.636Z,18.63
2023-05-14T11:28:11.633Z,18.62
2023-05-14T11:29:11.571Z,18.46
2023-05-14T11:30:11.642Z,18.64
2023-05-14T11:31:11.692Z,18.80
2023-05-14T11:32:11.689Z,18.83
2023-05-14T11:33:11.773Z,18.62
2023-05-14T11:34:11.705Z,18.74
2023-05-14T11:35:11.725Z,18.71
2023-05-14T11:36:11.789Z,18.86
2023-05-14T11:37:11.838Z,18.97
2023-05-14T11:38:11.834Z,18.91
2023-05-14T11:39:11.851Z,18.90
2023-05-14T11:40:11.905Z,19.02
2023-05-14T11:41:11.968Z,19.20
2023-05-14T11:42:11.968Z,19.35
2023-05-14T11:43:11.997Z,19.29
2023-05-14T11:44:12.049Z,19.38
2023-05-14T11:45:12.051Z,19.54
2023-05-14T11:46:12.133Z,19.65
2023-05-14T11:47:12.159Z,19.63
2023-05-14T11:48:12.121Z,19.57
2023-05-14T11:49:12.137Z,19.68
2023-05-14T11:50:12.194Z,19.58
2023-05-14T11:51:12.146Z,19.24
2023-05-14T11:52:12.185Z,18.97
2023-05-14T11:53:12.240Z,18.96
2023-05-14T11:54:12.309Z,19.04
2023-05-14T11:55:12.356Z,19.27
2023-05-14T11:56:12.398Z,19.35
2023-05-14T11:57:12.438Z,19.42
2023-05-14T11:58:12.461Z,19.34
2023-05-14T11:59:12.462Z,19.31
2023-05-14T12:00:12.543Z,19.36
2023-05-14T12:01:12.581Z,19.42
2023-05-14T12:02:12.649Z,19.40
2023-05-14T12:03:12.702Z,19.24
2023-05-14T12:04:12.665Z,19.15
2023-05-14T12:05:12.676Z,19.14
2023-05-14T12:06:12.679Z,19.24
2023-05-14T12:07:12.744Z,19.19
2023-05-14T12:08:12.764Z,19.30
2023-05-14T12:09:12.772Z,19.43
2023-05-14T12:10:12.875Z,19.46
2023-05-14T12:11:12.893Z,19.15
2023-05-14T12:12:12.973Z,18.68
2023-05-14T12:13:12.935Z,18.77
2023-05-14T12:14:12.984Z,18.88
2023-05-14T12:15:13.040Z,19.01
2023-05-14T12:16:13.071Z,19.07
2023-05-14T12:17:13.069Z,19.15
2023-05-14T12:18:23.543Z,19.20
2023-05-14T12:19:14.144Z,19.16
2023-05-14T12:20:13.087Z,19.13
2023-05-14T12:21:13.081Z,19.16
2023-05-14T12:22:13.067Z,19.16
2023-05-14T12:23:13.058Z,19.16
2023-05-14T12:24:13.100Z,19.12
2023-05-14T12:25:13.042Z,19.05
2023-05-14T12:26:13.034Z,18.95
2023-05-14T12:27:13.013Z,18.99
2023-05-14T12:28:13.034Z,19.03
2023-05-14T12:29:13.047Z,19.04
2023-05-14T12:30:21.410Z,19.05
2023-05-14T12:31:14.148Z,19.05
2023-05-14T12:32:13.048Z,19.10
2023-05-14T12:33:13.029Z,19.16
2023-05-14T12:34:12.988Z,19.21
2023-05-14T12:35:12.999Z,19.24
2023-05-14T12:36:21.143Z,19.11
2023-05-14T12:37:14.011Z,19.09
2023-05-14T12:38:12.995Z,19.06
2023-05-14T12:39:12.968Z,19.05
2023-05-14T12:40:13.155Z,19.06
2023-05-14T12:41:12.935Z,19.07
2023-05-14T12:42:12.958Z,19.13
2023-05-14T12:43:12.920Z,19.12
2023-05-14T12:44:12.970Z,19.12
2023-05-14T12:45:12.921Z,18.91
2023-05-14T12:46:12.937Z,18.87
2023-05-14T12:47:13.020Z,18.87
2023-05-14T12:48:12.983Z,18.85
2023-05-14T12:49:12.886Z,18.69
2023-05-14T12:50:12.906Z,18.60
2023-05-14T12:51:12.929Z,18.34
2023-05-14T12:53:12.989Z,18.23
2023-05-14T12:54:12.983Z,18.31